createdAt,value
2023-01-15T00:00:29.086Z,1.00
2023-01-15T00:02:57.630Z,1.10
2023-01-15T00:05:27.367Z,1.50
2023-01-15T00:07:55.723Z,1.20
2023-01-15T00:10:24.059Z,1.33
2023-01-15T00:12:52.450Z,1.10
2023-01-15T00:15:20.930Z,1.47
2023-01-15T00:17:49.298Z,1.20
2023-01-15T00:20:18.052Z,1.30
2023-01-15T00:22:47.865Z,1.10
2023-01-15T00:25:33.505Z,1.40
2023-01-15T00:28:02.006Z,1.07
2023-01-15T00:30:30.446Z,1.20
2023-01-15T00:32:59.668Z,1.23
2023-01-15T00:35:28.049Z,1.13
2023-01-15T00:37:57.736Z,1.10
2023-01-15T00:40:26.124Z,1.17
2023-01-15T00:42:54.880Z,1.23
2023-01-15T00:45:24.082Z,1.40
2023-01-15T00:47:52.633Z,1.27
2023-01-15T00:50:21.055Z,1.33
2023-01-15T00:52:49.441Z,1.00
2023-01-15T00:55:19.205Z,1.20
2023-01-15T00:57:47.538Z,1.23
2023-01-15T01:00:16.616Z,1.10
2023-01-15T01:02:45.064Z,1.10
2023-01-15T01:05:13.491Z,0.80
2023-01-15T01:07:45.100Z,1.00
2023-01-15T01:10:13.696Z,1.03
2023-01-15T01:12:43.549Z,0.97
2023-01-15T01:15:12.388Z,1.03
2023-01-15T01:17:40.739Z,1.07
2023-01-15T01:20:11.320Z,1.03
2023-01-15T01:22:39.671Z,0.70
2023-01-15T01:25:09.129Z,0.97
2023-01-15T01:27:37.493Z,0.87
2023-01-15T01:30:08.735Z,0.90
2023-01-15T01:32:37.256Z,1.10
2023-01-15T01:35:06.584Z,0.90
2023-01-15T01:37:37.083Z,0.90
2023-01-15T01:40:06.756Z,0.93
2023-01-15T01:42:35.106Z,1.10
2023-01-15T01:45:19.365Z,0.90
2023-01-15T01:47:48.258Z,1.00
2023-01-15T01:50:16.643Z,0.97
2023-01-15T01:52:48.371Z,0.87
2023-01-15T01:55:21.001Z,1.03
2023-01-15T01:57:51.502Z,0.70
2023-01-15T02:00:23.514Z,0.90
2023-01-15T02:02:53.631Z,0.87
2023-01-15T02:05:28.631Z,0.80
2023-01-15T02:07:57.084Z,0.80
2023-01-15T02:10:25.708Z,0.60
2023-01-15T02:13:01.069Z,0.63
2023-01-15T02:15:35.049Z,0.70
2023-01-15T02:18:12.023Z,0.90
2023-01-15T02:20:45.029Z,0.90
2023-01-15T02:23:34.693Z,0.80
2023-01-15T02:26:25.835Z,0.70
2023-01-15T02:28:59.056Z,0.90
2023-01-15T02:31:31.815Z,0.70
2023-01-15T02:34:05.299Z,0.60
2023-01-15T02:36:36.791Z,0.90
2023-01-15T02:39:10.457Z,0.70
2023-01-15T02:41:44.683Z,1.00
2023-01-15T02:44:18.024Z,0.60
2023-01-15T02:46:48.917Z,0.70
2023-01-15T02:49:20.805Z,0.70
2023-01-15T02:51:55.339Z,0.53
2023-01-15T02:54:26.407Z,0.70
2023-01-15T02:56:56.484Z,0.73
2023-01-15T02:59:31.460Z,0.80
2023-01-15T03:02:02.862Z,0.80
2023-01-15T03:04:36.263Z,0.63
2023-01-15T03:07:10.892Z,0.53
2023-01-15T03:09:39.728Z,0.67
2023-01-15T03:12:14.491Z,0.70
2023-01-15T03:14:54.615Z,0.83
2023-01-15T03:17:25.571Z,0.40
2023-01-15T03:19:59.781Z,0.60
2023-01-15T03:22:31.577Z,0.50
2023-01-15T03:25:04.215Z,0.60
2023-01-15T03:27:33.202Z,0.73
2023-01-15T03:30:08.147Z,0.87
2023-01-15T03:32:36.914Z,0.70
2023-01-15T03:35:10.619Z,0.80
2023-01-15T03:37:39.020Z,0.87
2023-01-15T03:40:08.821Z,0.73
2023-01-15T03:42:46.713Z,0.60
2023-01-15T03:45:24.396Z,0.60
2023-01-15T03:48:01.235Z,0.90
2023-01-15T03:50:41.749Z,0.60
2023-01-15T03:53:16.775Z,0.80
2023-01-15T03:55:51.383Z,0.47
2023-01-15T03:58:25.161Z,0.63
2023-01-15T04:00:58.416Z,0.40
2023-01-15T04:03:29.399Z,0.77
2023-01-15T04:06:00.109Z,0.73
2023-01-15T04:08:32.060Z,0.73
2023-01-15T04:11:03.335Z,0.90
2023-01-15T04:13:41.716Z,0.80
2023-01-15T04:16:11.416Z,0.70
2023-01-15T04:18:39.942Z,0.70
2023-01-15T04:21:08.255Z,0.53
2023-01-15T04:23:36.639Z,0.40
2023-01-15T04:26:05.034Z,1.00
2023-01-15T04:28:33.364Z,0.80
2023-01-15T04:31:01.938Z,0.63
2023-01-15T04:33:31.847Z,0.50
2023-01-15T04:36:00.578Z,0.53
2023-01-15T04:38:29.385Z,0.50
2023-01-15T04:41:19.858Z,0.73
2023-01-15T04:44:05.876Z,0.40
2023-01-15T04:46:35.300Z,0.57
2023-01-15T04:49:05.590Z,0.97
2023-01-15T04:51:33.943Z,0.83
2023-01-15T04:54:03.951Z,0.57
2023-01-15T04:56:32.658Z,0.90
2023-01-15T04:59:02.080Z,0.60
2023-01-15T05:01:30.513Z,0.70
2023-01-15T05:03:58.943Z,0.70
2023-01-15T05:06:28.814Z,0.53
2023-01-15T05:08:57.286Z,0.60
2023-01-15T05:11:25.944Z,0.60
2023-01-15T05:13:54.782Z,0.60
2023-01-15T05:16:25.761Z,0.60
2023-01-15T05:18:55.951Z,0.60
2023-01-15T05:21:26.197Z,0.40
2023-01-15T05:23:57.923Z,0.70
2023-01-15T05:26:26.552Z,0.60
2023-01-15T05:28:56.274Z,0.77
2023-01-15T05:31:25.980Z,0.40
2023-01-15T05:33:55.136Z,0.53
2023-01-15T05:36:25.839Z,0.50
2023-01-15T05:38:57.943Z,0.30
2023-01-15T05:41:43.345Z,0.33
2023-01-15T05:44:13.350Z,0.70
2023-01-15T05:46:43.410Z,0.47
2023-01-15T05:49:14.081Z,0.60
2023-01-15T05:51:42.935Z,0.60
2023-01-15T05:54:15.206Z,0.40
2023-01-15T05:56:45.576Z,0.47
2023-01-15T05:59:14.646Z,0.77
2023-01-15T06:01:43.559Z,0.70
2023-01-15T06:04:14.172Z,0.53
2023-01-15T06:06:43.564Z,0.80
2023-01-15T06:09:13.596Z,0.40
2023-01-15T06:11:42.481Z,0.60
2023-01-15T06:14:12.464Z,0.80
2023-01-15T06:16:41.694Z,0.60
2023-01-15T06:19:11.181Z,0.63
2023-01-15T06:21:39.697Z,0.67
2023-01-15T06:24:08.869Z,0.70
2023-01-15T06:26:39.336Z,0.50
2023-01-15T06:29:07.731Z,0.60
2023-01-15T06:31:36.138Z,0.60
2023-01-15T06:34:04.631Z,0.70
2023-01-15T06:36:32.947Z,0.50
2023-01-15T06:39:01.274Z,0.87
2023-01-15T06:41:47.381Z,0.90
2023-01-15T06:44:36.061Z,0.80
2023-01-15T06:47:24.258Z,1.10
2023-01-15T06:49:55.141Z,0.90
2023-01-15T06:52:24.151Z,1.00
2023-01-15T06:54:53.256Z,1.13
2023-01-15T06:57:21.723Z,2.70
2023-01-15T06:59:52.210Z,2.23
2023-01-15T07:02:21.572Z,1.13
2023-01-15T07:04:50.362Z,1.10
2023-01-15T07:07:20.140Z,1.50
2023-01-15T07:09:48.729Z,1.70
2023-01-15T07:12:17.257Z,1.50
2023-01-15T07:14:45.767Z,1.90
2023-01-15T07:17:15.789Z,1.40
2023-01-15T07:19:45.056Z,1.40
2023-01-15T07:22:13.948Z,1.10
2023-01-15T07:24:42.259Z,1.47
2023-01-15T07:27:10.650Z,1.53
2023-01-15T07:29:38.963Z,1.57
2023-01-15T07:32:07.905Z,0.90
2023-01-15T07:34:37.639Z,0.70
2023-01-15T07:37:05.960Z,0.90
2023-01-15T07:39:34.554Z,0.60
2023-01-15T07:42:20.681Z,0.73
2023-01-15T07:45:06.545Z,0.63
2023-01-15T07:47:53.713Z,0.90
2023-01-15T07:50:25.158Z,0.70
2023-01-15T07:52:53.953Z,0.70
2023-01-15T07:55:22.895Z,0.57
2023-01-15T07:57:52.384Z,0.80
2023-01-15T08:00:22.889Z,0.80
2023-01-15T08:02:51.694Z,0.70
2023-01-15T08:05:20.267Z,0.80
2023-01-15T08:07:50.521Z,0.73
2023-01-15T08:10:19.660Z,0.73
2023-01-15T08:13:08.568Z,1.00
2023-01-15T08:15:40.808Z,1.10
2023-01-15T08:18:09.449Z,0.50
2023-01-15T08:20:37.883Z,0.80
2023-01-15T08:23:07.773Z,0.70
2023-01-15T08:25:36.174Z,0.83
2023-01-15T08:28:04.683Z,0.97
2023-01-15T08:30:33.229Z,0.60
2023-01-15T08:33:03.158Z,0.70
2023-01-15T08:35:31.872Z,1.00
2023-01-15T08:38:00.270Z,0.73
2023-01-15T08:40:30.020Z,0.90
2023-01-15T08:42:58.359Z,0.70
2023-01-15T08:45:26.773Z,0.80
2023-01-15T08:47:57.056Z,0.90
2023-01-15T08:50:25.548Z,0.80
2023-01-15T08:52:53.961Z,0.90
2023-01-15T08:55:22.298Z,0.70
2023-01-15T08:57:51.957Z,0.90
2023-01-15T09:00:21.785Z,0.83
2023-01-15T09:02:50.471Z,0.67
2023-01-15T09:05:18.919Z,0.90
2023-01-15T09:07:47.360Z,0.70
2023-01-15T09:10:17.052Z,0.80
2023-01-15T09:12:45.362Z,1.00
2023-01-15T09:15:15.478Z,0.83
2023-01-15T09:17:44.251Z,0.70
2023-01-15T09:20:14.640Z,0.73
2023-01-15T09:22:43.248Z,0.83
2023-01-15T09:25:11.771Z,0.80
2023-01-15T09:27:40.164Z,0.87
2023-01-15T09:30:09.629Z,0.90
2023-01-15T09:32:39.502Z,1.00
2023-01-15T09:35:09.027Z,0.90
2023-01-15T09:37:37.999Z,1.00
2023-01-15T09:40:09.265Z,1.03
2023-01-15T09:42:46.813Z,0.80
2023-01-15T09:45:21.541Z,1.40
2023-01-15T09:48:21.460Z,0.60
2023-01-15T09:51:05.939Z,0.60
2023-01-15T09:53:56.258Z,0.77
2023-01-15T09:56:27.912Z,0.63
2023-01-15T09:58:59.096Z,0.77
2023-01-15T10:01:31.524Z,1.00
2023-01-15T10:04:07.629Z,0.83
2023-01-15T10:06:44.483Z,0.90
2023-01-15T10:09:17.974Z,1.07
2023-01-15T10:12:06.870Z,0.90
2023-01-15T10:14:44.724Z,0.90
2023-01-15T10:17:23.722Z,1.03
2023-01-15T10:19:54.302Z,1.10
2023-01-15T10:22:39.005Z,1.10
2023-01-15T10:25:15.881Z,1.10
2023-01-15T10:27:48.649Z,0.80
2023-01-15T10:30:23.163Z,1.20
2023-01-15T10:33:02.291Z,1.30
2023-01-15T10:35:41.994Z,1.13
2023-01-15T10:38:20.390Z,0.67
2023-01-15T10:41:16.340Z,1.30
2023-01-15T10:43:52.177Z,0.97
2023-01-15T10:46:23.872Z,0.90
2023-01-15T10:49:06.720Z,0.97
2023-01-15T10:51:42.924Z,0.97
2023-01-15T10:54:21.816Z,0.87
2023-01-15T10:57:01.854Z,1.20
2023-01-15T10:59:43.324Z,1.40
2023-01-15T11:02:29.780Z,0.67
2023-01-15T11:04:58.343Z,0.87
2023-01-15T11:07:46.660Z,0.80
2023-01-15T11:10:27.708Z,1.00
2023-01-15T11:13:15.581Z,1.87
2023-01-15T11:16:05.255Z,1.30
2023-01-15T11:18:54.291Z,1.57
2023-01-15T11:21:24.472Z,1.13
2023-01-15T11:23:56.609Z,0.70
2023-01-15T11:26:26.905Z,0.40
2023-01-15T11:28:56.580Z,0.20
2023-01-15T11:31:36.329Z,0.43
2023-01-15T11:34:07.817Z,0.57
2023-01-15T11:36:36.151Z,0.60
2023-01-15T11:39:05.907Z,0.97
2023-01-15T11:41:50.143Z,1.10
2023-01-15T11:44:40.199Z,0.87
2023-01-15T11:47:33.311Z,0.40
2023-01-15T11:50:19.118Z,0.40
2023-01-15T11:52:52.119Z,0.10
2023-01-15T11:55:25.250Z,0.20
2023-01-15T11:57:55.910Z,0.40
2023-01-15T12:00:26.581Z,0.23
2023-01-15T12:03:00.330Z,0.20
2023-01-15T12:05:32.303Z,0.30
2023-01-15T12:08:04.933Z,0.40
2023-01-15T12:10:57.470Z,0.60
2023-01-15T12:13:31.832Z,0.70
2023-01-15T12:16:09.249Z,0.90
2023-01-15T12:19:12.916Z,1.00
2023-01-15T12:22:16.885Z,0.60
2023-01-15T12:25:05.025Z,0.57
2023-01-15T12:28:00.566Z,0.23
2023-01-15T12:30:37.803Z,0.53
2023-01-15T12:33:20.835Z,0.40
2023-01-15T12:35:56.960Z,0.20
2023-01-15T12:38:37.803Z,0.20
2023-01-15T12:41:11.660Z,0.20
2023-01-15T12:44:05.953Z,0.40
2023-01-15T12:46:35.763Z,0.50
2023-01-15T12:49:10.971Z,0.70
2023-01-15T12:51:50.209Z,0.80
2023-01-15T12:54:24.911Z,1.40
2023-01-15T12:57:02.987Z,1.23
2023-01-15T12:59:38.493Z,0.80
2023-01-15T13:02:19.845Z,1.20
2023-01-15T13:04:52.717Z,1.00
2023-01-15T13:07:28.072Z,1.10
2023-01-15T13:10:07.675Z,1.07
2023-01-15T13:12:36.410Z,0.87
2023-01-15T13:15:07.263Z,1.33
2023-01-15T13:17:50.712Z,1.10
2023-01-15T13:20:34.660Z,0.73
2023-01-15T13:23:10.395Z,1.50
2023-01-15T13:26:01.569Z,1.43
2023-01-15T13:28:51.340Z,0.80
2023-01-15T13:31:37.154Z,1.60
2023-01-15T13:34:11.385Z,2.13
2023-01-15T13:36:45.760Z,1.90
2023-01-15T13:39:18.832Z,2.77
2023-01-15T13:42:08.748Z,2.23
2023-01-15T13:44:42.848Z,1.30
2023-01-15T13:47:14.977Z,1.30
2023-01-15T13:49:49.407Z,0.73
2023-01-15T13:52:27.895Z,2.03
2023-01-15T13:54:59.707Z,0.77
2023-01-15T13:57:35.502Z,3.10
2023-01-15T14:00:06.272Z,1.87
2023-01-15T14:02:40.982Z,1.93
2023-01-15T14:05:32.172Z,2.13
2023-01-15T14:08:02.357Z,2.17
2023-01-15T14:10:40.390Z,1.50
2023-01-15T14:13:28.857Z,1.10
2023-01-15T14:16:10.832Z,0.77
2023-01-15T14:19:07.951Z,0.93
2023-01-15T14:21:45.490Z,1.83
2023-01-15T14:24:46.341Z,2.40
2023-01-15T14:27:25.039Z,1.53
2023-01-15T14:30:22.749Z,2.07
2023-01-15T14:33:04.609Z,1.00
2023-01-15T14:35:37.849Z,0.60
2023-01-15T14:38:09.436Z,0.30
2023-01-15T14:40:40.699Z,0.60
2023-01-15T14:43:16.943Z,0.80
2023-01-15T14:45:48.277Z,0.70
2023-01-15T14:48:20.539Z,0.60
2023-01-15T14:50:50.287Z,0.37
2023-01-15T14:53:32.039Z,0.37
2023-01-15T14:56:14.030Z,0.53
2023-01-15T14:58:54.256Z,0.40
2023-01-15T15:01:43.565Z,0.30
2023-01-15T15:04:23.234Z,0.30
2023-01-15T15:06:56.557Z,0.20
2023-01-15T15:09:32.116Z,0.30
2023-01-15T15:12:21.549Z,0.23
2023-01-15T15:14:58.825Z,0.33
2023-01-15T15:17:38.255Z,0.73
2023-01-15T15:20:22.310Z,0.50
2023-01-15T15:22:56.655Z,0.70
2023-01-15T15:25:28.464Z,0.90
2023-01-15T15:28:04.425Z,0.90
2023-01-15T15:30:35.999Z,1.20
2023-01-15T15:33:06.692Z,1.03
2023-01-15T15:35:35.662Z,1.60
2023-01-15T15:38:06.989Z,1.33
2023-01-15T15:40:37.554Z,1.87
2023-01-15T15:43:32.631Z,1.90
2023-01-15T15:46:18.555Z,1.50
2023-01-15T15:48:58.060Z,1.80
2023-01-15T15:51:31.721Z,1.23
2023-01-15T15:54:13.379Z,1.03
2023-01-15T15:56:45.421Z,0.93
2023-01-15T15:59:25.628Z,0.80
2023-01-15T16:01:54.663Z,0.60
2023-01-15T16:04:24.416Z,1.00
2023-01-15T16:06:53.080Z,0.50
2023-01-15T16:09:24.714Z,0.40
2023-01-15T16:11:55.563Z,0.70
2023-01-15T16:14:24.425Z,1.50
2023-01-15T16:16:53.543Z,0.60
2023-01-15T16:19:25.608Z,2.40
2023-01-15T16:21:54.980Z,2.17
2023-01-15T16:24:28.370Z,1.10
2023-01-15T16:27:09.142Z,0.33
2023-01-15T16:29:37.792Z,1.87
2023-01-15T16:32:12.371Z,2.10
2023-01-15T16:34:41.464Z,1.50
2023-01-15T16:37:27.220Z,2.47
2023-01-15T16:39:58.149Z,2.13
2023-01-15T16:42:29.604Z,2.57
2023-01-15T16:45:01.176Z,3.17
2023-01-15T16:47:33.632Z,3.90
2023-01-15T16:50:28.997Z,2.03
2023-01-15T16:52:59.976Z,1.30
2023-01-15T16:55:44.539Z,1.43
2023-01-15T16:58:18.066Z,2.43
2023-01-15T17:00:48.736Z,3.27
2023-01-15T17:03:19.529Z,3.70
2023-01-15T17:05:49.605Z,5.07
2023-01-15T17:08:20.341Z,3.60
2023-01-15T17:10:58.950Z,3.00
2023-01-15T17:13:34.347Z,3.97
2023-01-15T17:16:06.555Z,1.43
2023-01-15T17:18:35.707Z,1.80
2023-01-15T17:21:04.603Z,1.67
2023-01-15T17:23:36.670Z,2.70
2023-01-15T17:26:07.782Z,3.10
2023-01-15T17:28:36.201Z,2.80
2023-01-15T17:31:04.683Z,2.70
2023-01-15T17:33:33.111Z,0.67
2023-01-15T17:36:01.524Z,1.03
2023-01-15T17:38:29.900Z,1.90
2023-01-15T17:41:00.610Z,2.27
2023-01-15T17:43:30.410Z,2.40
2023-01-15T17:45:59.985Z,1.07
2023-01-15T17:48:28.769Z,1.20
2023-01-15T17:50:57.181Z,2.03
2023-01-15T17:53:25.540Z,1.40
2023-01-15T17:56:11.401Z,1.00
2023-01-15T17:58:59.036Z,1.00
2023-01-15T18:01:47.559Z,1.10
2023-01-15T18:04:37.075Z,0.83
2023-01-15T18:07:06.012Z,1.67
2023-01-15T18:09:36.014Z,0.70
2023-01-15T18:12:05.082Z,1.57
2023-01-15T18:14:34.861Z,2.40
2023-01-15T18:17:03.503Z,3.37
2023-01-15T18:19:32.001Z,3.03
2023-01-15T18:22:02.053Z,2.23
2023-01-15T18:24:30.414Z,1.00
2023-01-15T18:26:58.781Z,1.87
2023-01-15T18:29:27.144Z,5.83
2023-01-15T18:31:57.088Z,3.93
2023-01-15T18:34:25.485Z,2.47
2023-01-15T18:36:53.883Z,1.17
2023-01-15T18:39:22.254Z,1.13
2023-01-15T18:42:08.460Z,1.30
2023-01-15T18:44:54.631Z,1.37
2023-01-15T18:47:26.944Z,1.20
2023-01-15T18:49:56.171Z,2.77
2023-01-15T18:52:41.972Z,3.60
2023-01-15T18:55:11.174Z,2.90
2023-01-15T18:57:39.628Z,2.20
2023-01-15T19:00:09.531Z,1.60
2023-01-15T19:02:39.359Z,0.80
2023-01-15T19:05:08.127Z,0.87
2023-01-15T19:07:36.667Z,1.10
2023-01-15T19:10:05.813Z,0.77
2023-01-15T19:12:36.183Z,0.73
2023-01-15T19:15:22.616Z,1.00
2023-01-15T19:18:09.724Z,0.80
2023-01-15T19:20:39.098Z,0.70
2023-01-15T19:23:07.547Z,3.60
2023-01-15T19:25:38.888Z,2.37
2023-01-15T19:28:07.956Z,2.00
2023-01-15T19:30:38.565Z,1.17
2023-01-15T19:33:11.557Z,1.00
2023-01-15T19:35:40.351Z,0.83
2023-01-15T19:38:10.511Z,1.57
2023-01-15T19:40:42.046Z,4.00
2023-01-15T19:43:43.840Z,4.53
2023-01-15T19:46:29.943Z,1.10
2023-01-15T19:49:17.218Z,0.80
2023-01-15T19:52:03.092Z,0.70
2023-01-15T19:54:48.915Z,0.93
2023-01-15T19:57:21.451Z,0.70
2023-01-15T19:59:50.361Z,1.03
2023-01-15T20:02:18.934Z,1.00
2023-01-15T20:04:48.742Z,1.07
2023-01-15T20:07:17.323Z,1.00
2023-01-15T20:09:46.299Z,2.27
2023-01-15T20:12:32.266Z,1.50
2023-01-15T20:15:00.667Z,2.50
2023-01-15T20:17:30.684Z,5.00
2023-01-15T20:20:00.850Z,5.80
2023-01-15T20:22:30.492Z,2.27
2023-01-15T20:24:59.137Z,0.83
2023-01-15T20:27:35.840Z,3.23
2023-01-15T20:30:07.296Z,3.00
2023-01-15T20:32:37.964Z,1.07
2023-01-15T20:35:11.228Z,3.20
2023-01-15T20:37:40.104Z,1.43
2023-01-15T20:40:10.403Z,0.90
2023-01-15T20:42:56.694Z,0.90
2023-01-15T20:45:25.344Z,1.43
2023-01-15T20:48:11.281Z,0.60
2023-01-15T20:50:42.925Z,0.90
2023-01-15T20:53:12.056Z,0.60
2023-01-15T20:55:54.693Z,0.57
2023-01-15T20:58:24.289Z,1.00
2023-01-15T21:00:53.029Z,1.13
2023-01-15T21:03:21.498Z,3.67
2023-01-15T21:05:51.243Z,2.30
2023-01-15T21:08:20.965Z,1.77
2023-01-15T21:10:53.494Z,0.77
2023-01-15T21:13:23.659Z,0.90
2023-01-15T21:15:58.013Z,1.40
2023-01-15T21:18:26.933Z,1.03
2023-01-15T21:20:57.042Z,1.23
2023-01-15T21:23:26.038Z,2.30
2023-01-15T21:26:01.387Z,3.00
2023-01-15T21:28:29.815Z,3.13
2023-01-15T21:31:00.124Z,5.23
2023-01-15T21:33:29.075Z,4.53
2023-01-15T21:35:58.990Z,3.47
2023-01-15T21:38:27.352Z,2.50
2023-01-15T21:40:55.705Z,2.23
2023-01-15T21:43:41.731Z,2.43
2023-01-15T21:46:10.093Z,2.70
2023-01-15T21:48:38.426Z,2.07
2023-01-15T21:51:08.443Z,2.60
2023-01-15T21:53:36.780Z,1.97
2023-01-15T21:56:07.064Z,1.90
2023-01-15T21:58:37.453Z,2.20
2023-01-15T22:01:09.797Z,2.37
2023-01-15T22:03:38.976Z,2.80
2023-01-15T22:06:10.695Z,9.03
2023-01-15T22:08:39.086Z,10.77
2023-01-15T22:11:10.656Z,7.03
2023-01-15T22:13:40.740Z,4.70
2023-01-15T22:16:09.396Z,5.37
2023-01-15T22:18:37.720Z,5.20
2023-01-15T22:21:08.593Z,4.33
2023-01-15T22:23:36.953Z,3.87
2023-01-15T22:26:05.568Z,3.23
2023-01-15T22:28:33.919Z,3.83
2023-01-15T22:31:07.208Z,3.47
2023-01-15T22:33:35.567Z,3.27
2023-01-15T22:36:04.076Z,1.93
2023-01-15T22:38:35.298Z,1.70
2023-01-15T22:41:03.617Z,1.97
2023-01-15T22:43:31.121Z,1.80
2023-01-15T22:46:09.175Z,1.83
2023-01-15T22:48:37.626Z,1.50
2023-01-15T22:51:06.708Z,1.80
2023-01-15T22:53:37.095Z,1.90
2023-01-15T22:56:06.190Z,1.80
2023-01-15T22:58:34.561Z,1.70
2023-01-15T23:01:03.013Z,2.40
2023-01-15T23:03:35.467Z,2.10
2023-01-15T23:06:05.086Z,1.60
2023-01-15T23:08:35.328Z,2.20
2023-01-15T23:11:09.993Z,1.80
2023-01-15T23:13:38.926Z,2.10
2023-01-15T23:16:07.753Z,2.30
2023-01-15T23:18:37.080Z,2.00
2023-01-15T23:21:06.500Z,2.10
2023-01-15T23:23:35.316Z,1.90
2023-01-15T23:26:05.920Z,1.90
2023-01-15T23:28:34.391Z,1.97
2023-01-15T23:31:02.892Z,2.00
2023-01-15T23:33:31.323Z,1.90
2023-01-15T23:36:00.177Z,2.20
2023-01-15T23:38:29.148Z,2.00
2023-01-15T23:40:57.685Z,1.77
2023-01-15T23:43:44.656Z,2.10
2023-01-15T23:46:35.322Z,2.00
2023-01-15T23:49:06.771Z,2.10
2023-01-15T23:51:36.208Z,1.67
2023-01-15T23:54:05.308Z,1.50
2023-01-15T23:56:34.151Z,1.33
2023-01-15T23:59:03.929Z,1.60
